KGFA/GFA METAR and TAF weather

Enter ICAO airport designator
Station Type Date Time Source
KGFA METAR 2022/06/25 21:58 UTC NOAA

KGFA 252158Z AUTO 28006KT 10SM FEW065 18/01 A3042 RMK AO2 SLP312 T01760010 $


Station Type Date Time Source
KGFA Decoded METAR 2022/06/25 21:58 UTC NOAA

Malmstrom Air Force Base, MT, United States (KGFA) 47-30N 111-11W
Jun 25, 2022 - 05:58 PM EDT / 2022.06.25 2158 UTC
Wind: from the W (280 degrees) at 7 MPH (6 KT):0
Visibility: 10 mile(s):0
Sky conditions: mostly clear
Temperature: 63.7 F (17.6 C)
Dew Point: 33.8 F (1.0 C)
Relative Humidity: 32%
Pressure (altimeter): 30.42 in. Hg (1030 hPa)
ob: KGFA 252158Z AUTO 28006KT 10SM FEW065 18/01 A3042 RMK AO2 SLP312 T01760010
cycle: 22

Station Type Date Time Source
KGFA TAF 2022/06/24 22:39 UTC NOAA

TAF
AMD KGFA 242200Z 2422/2602 31010G15KT 9999 OVC100 QNH3020INS
TEMPO 2423/2504 VCTS OVC040CB
BECMG 2504/2505 VRB06KT 9999 FEW030 SCT050 OVC065 510012 QNH3033INS
BECMG 2519/2520 VRB06KT 9999 FEW120 QNH3039INS TX18/2517Z TN06/2512Z LAST NO
AMDS AFT 2423 NEXT 2712

Example: see airport list